Aérodrome :
LOGIN :

S'inscrire | Disclaimer

   EN    FR    IT 

 










Légende :    VFR   VFR Marginal   IFR   IFR Intensif   IFR Très Intensif
Visi : 
Plafond : 
>= 8 km
>= 3000ft
5 à 8 km
1000 à 3000 ft
1500m à 5 km
500 à 1000 ft
800 à 1500m
200 à 500 ft
< 800m
< 200 ft
Symboles :   Orages  Brouillard  Fortes neiges  Fortes précipitations  Vent > 20 kt
SIGMETs :   Divers  Orages  Givrage  Turbulence  Onde Orograph.  Cendres Volcan.







- Altitude de l'aérodrome : 266 ft
- Code IATA : NCL
- Voir les cartes d'approche


EGNT - Newcastle

DERNIER METAR :
  • 250920Z 29006KT 240V340 CAVOK 23/10 Q1025

METARs EXPIRÉS :
  • 250850Z 30007KT 260V330 CAVOK 21/10 Q1025
  • 250820Z 29007KT CAVOK 20/09 Q1025
  • 250750Z 30009KT CAVOK 19/09 Q1025
  • 250720Z 27007KT CAVOK 19/09 Q1025
  • 250650Z 29007KT CAVOK 17/09 Q1025

TAF TAF EGNT
Valide du 25 à 06h jusqu'au 26 à 06h UTC


250453Z 2506/2606 30005KT CAVOK
BECMG 2511/2513 07010KT
PROB30 2602/2606 3000 BR BKN003
ATIS : +44 191 214 3400
Pas de NOTAMs connus pour ce terrain.



MET'MAP, la Météo Aéronautique d'un coup d'oeil ! - Copyright ORBIFLY Décembre 2007 - Disclaimer

ORBIFLY MET'MAP TEAM :

Programmation & Développement : Alexandra Zaïnal
Conception & Développement : Baudouin d'Aumeries
Co-Programmation & Développement : Marc-Olivier Méhu
Soutien technique & logistique : Manuel Goepfert

Contact : metmap@orbifly.com




SOURCES & CREDITS :

   NOAA